createdAt,value
2022-12-15T06:04:37.551Z,99297.47
2022-12-15T06:07:04.202Z,99298.31
2022-12-15T06:09:31.434Z,99294.06
2022-12-15T06:11:58.058Z,99290.66
2022-12-15T06:14:25.228Z,99286.34
2022-12-15T06:16:51.920Z,99285.53
2022-12-15T06:19:20.156Z,99297.59
2022-12-15T06:21:48.285Z,99301.88
2022-12-15T06:24:15.690Z,99305.31
2022-12-15T06:26:42.274Z,99307.03
2022-12-15T06:29:12.452Z,99310.53
2022-12-15T06:31:40.342Z,99313.16
2022-12-15T06:34:11.271Z,99316.63
2022-12-15T06:36:38.964Z,99317.47
2022-12-15T06:39:09.249Z,99309.72
2022-12-15T06:41:36.464Z,99313.19
2022-12-15T06:44:03.097Z,99309.78
2022-12-15T06:46:31.752Z,99311.50
2022-12-15T06:48:59.815Z,99312.38
2022-12-15T06:51:28.988Z,99313.31
2022-12-15T06:53:56.264Z,99318.50
2022-12-15T06:56:34.069Z,99317.63
2022-12-15T06:59:03.735Z,99321.91
2022-12-15T07:01:30.825Z,99320.16
2022-12-15T07:04:03.497Z,99323.66
2022-12-15T07:06:37.278Z,99318.53
2022-12-15T07:09:07.662Z,99319.44
2022-12-15T07:11:34.469Z,99314.31
2022-12-15T07:14:01.618Z,99314.31
2022-12-15T07:16:28.262Z,99313.50
2022-12-15T07:18:55.449Z,99321.38
2022-12-15T07:21:22.411Z,99325.72
2022-12-15T07:23:57.478Z,99337.00
2022-12-15T07:26:25.306Z,99336.19
2022-12-15T07:28:54.108Z,99336.19
2022-12-15T07:31:22.508Z,99350.88
2022-12-15T07:33:49.886Z,99344.91
2022-12-15T07:36:16.456Z,99355.34
2022-12-15T07:38:50.381Z,99352.75
2022-12-15T07:41:18.439Z,99355.34
2022-12-15T07:43:46.708Z,99360.56
2022-12-15T07:46:13.406Z,99363.16
2022-12-15T07:48:40.324Z,99364.91
2022-12-15T07:51:15.222Z,99381.31
2022-12-15T07:53:46.695Z,99371.88
2022-12-15T07:56:14.212Z,99381.38
2022-12-15T07:58:40.787Z,99387.47
2022-12-15T08:01:11.201Z,99388.41
2022-12-15T08:03:39.632Z,99394.50
2022-12-15T08:06:10.434Z,99399.72
2022-12-15T08:08:37.286Z,99400.63
2022-12-15T08:11:05.886Z,99400.72
2022-12-15T08:16:24.153Z,99406.09
2022-12-15T08:18:50.957Z,99401.84
2022-12-15T08:21:18.197Z,99406.22
2022-12-15T08:23:45.043Z,99395.06
2022-12-15T08:26:15.324Z,99391.75
2022-12-15T08:28:42.955Z,99394.47
2022-12-15T08:31:13.961Z,99389.41
2022-12-15T08:33:42.555Z,99391.28
2022-12-15T08:36:12.028Z,99394.81
2022-12-15T08:38:40.652Z,99393.19
2022-12-15T08:41:23.399Z,99383.84
2022-12-15T08:43:51.758Z,99391.69
2022-12-15T08:46:24.575Z,99390.03
2022-12-15T08:48:53.186Z,99388.38
2022-12-15T08:51:20.843Z,99384.13
2022-12-15T08:53:48.925Z,99391.97
2022-12-15T08:56:19.349Z,99400.69
2022-12-15T08:58:46.867Z,99395.53
2022-12-15T09:01:22.425Z,99407.69
2022-12-15T09:03:52.744Z,99410.41
2022-12-15T09:06:33.561Z,99411.28
2022-12-15T09:09:04.062Z,99412.22
2022-12-15T09:11:31.619Z,99414.84
2022-12-15T09:13:58.792Z,99421.91
2022-12-15T09:16:26.323Z,99424.56
2022-12-15T09:18:56.116Z,99426.34
2022-12-15T09:21:26.020Z,99426.47
2022-12-15T09:23:55.636Z,99417.03
2022-12-15T09:26:23.726Z,99428.34
2022-12-15T09:28:51.280Z,99431.03
2022-12-15T09:31:25.031Z,99420.72
2022-12-15T09:33:54.238Z,99424.22
2022-12-15T09:36:22.328Z,99430.38
2022-12-15T09:38:50.177Z,99433.03
2022-12-15T09:41:27.077Z,99437.47
2022-12-15T09:44:01.618Z,99442.69
2022-12-15T09:46:31.199Z,99436.72
2022-12-15T09:49:03.226Z,99434.19
2022-12-15T09:51:36.263Z,99443.75
2022-12-15T09:54:04.157Z,99442.13
2022-12-15T09:56:56.545Z,99451.72
2022-12-15T09:59:51.485Z,99452.66
2022-12-15T10:02:49.771Z,99454.38
2022-12-15T10:06:06.824Z,99454.44
2022-12-15T10:08:23.723Z,99457.91
2022-12-15T10:10:55.968Z,99460.56
2022-12-15T10:13:34.317Z,99456.28
2022-12-15T10:16:09.164Z,99465.03
2022-12-15T10:18:46.885Z,99462.47
2022-12-15T10:21:17.622Z,99458.16
2022-12-15T10:23:44.208Z,99464.25
2022-12-15T10:26:32.101Z,99464.31
2022-12-15T10:29:16.998Z,99458.22
2022-12-15T10:32:00.574Z,99462.56
2022-12-15T10:34:29.903Z,99465.19
2022-12-15T10:36:57.903Z,99460.00
2022-12-15T10:39:46.160Z,99462.66
2022-12-15T10:42:25.164Z,99468.75
2022-12-15T10:44:55.491Z,99456.59
2022-12-15T10:47:26.185Z,99458.34
2022-12-15T10:49:54.882Z,99460.06
2022-12-15T10:52:27.256Z,99447.06
2022-12-15T10:54:55.588Z,99460.06
2022-12-15T10:57:23.762Z,99452.25
2022-12-15T10:59:51.326Z,99453.97
2022-12-15T11:02:26.152Z,99452.25
2022-12-15T11:05:06.519Z,99447.03
2022-12-15T11:07:37.423Z,99449.66
2022-12-15T11:10:20.376Z,99449.69
2022-12-15T11:13:19.113Z,99460.13
2022-12-15T11:15:50.525Z,99455.81
2022-12-15T11:18:38.653Z,99455.81
2022-12-15T11:21:21.867Z,99447.97
2022-12-15T11:23:59.455Z,99438.41
2022-12-15T11:26:45.520Z,99437.53
2022-12-15T11:29:17.916Z,99446.22
2022-12-15T11:31:45.838Z,99444.47
2022-12-15T11:34:18.464Z,99445.38
2022-12-15T11:37:18.314Z,99434.94
2022-12-15T11:40:12.267Z,99427.09
2022-12-15T11:42:55.388Z,99428.84
2022-12-15T11:45:47.024Z,99426.22
2022-12-15T11:48:19.426Z,99427.97
2022-12-15T11:51:06.443Z,99424.47
2022-12-15T11:54:00.964Z,99431.44
2022-12-15T11:56:34.104Z,99427.09
2022-12-15T11:59:18.866Z,99427.06
2022-12-15T12:01:54.020Z,99418.38
2022-12-15T12:04:30.508Z,99421.84
2022-12-15T12:07:19.079Z,99418.34
2022-12-15T12:09:58.111Z,99413.13
2022-12-15T12:13:04.645Z,99413.09
2022-12-15T12:15:31.783Z,99405.28
2022-12-15T12:18:17.289Z,99412.22
2022-12-15T12:20:50.293Z,99413.09
2022-12-15T12:23:22.219Z,99411.31
2022-12-15T12:26:03.297Z,99406.09
2022-12-15T12:28:54.356Z,99403.50
2022-12-15T12:31:56.483Z,99389.59
2022-12-15T12:34:33.211Z,99392.22
2022-12-15T12:37:32.459Z,99393.97
2022-12-15T12:40:07.858Z,99394.81
2022-12-15T12:42:40.719Z,99397.41
2022-12-15T12:45:12.644Z,99394.78
2022-12-15T12:47:44.489Z,99393.91
2022-12-15T12:50:16.892Z,99392.22
2022-12-15T12:52:51.078Z,99393.06
2022-12-15T12:55:30.232Z,99396.53
2022-12-15T12:57:56.876Z,99391.34
2022-12-15T13:00:27.563Z,99391.31
2022-12-15T13:03:23.204Z,99388.72
2022-12-15T13:05:51.910Z,99390.47
2022-12-15T13:08:27.999Z,99394.81
2022-12-15T13:10:56.622Z,99393.94
2022-12-15T13:13:29.504Z,99380.00
2022-12-15T13:16:37.173Z,99387.78
2022-12-15T13:19:08.431Z,99387.81
2022-12-15T13:21:41.805Z,99381.72
2022-12-15T13:24:34.030Z,99381.75
2022-12-15T13:27:10.158Z,99373.88
2022-12-15T13:29:54.943Z,99371.28
2022-12-15T13:32:45.063Z,99373.03
2022-12-15T13:35:12.667Z,99364.31
2022-12-15T13:38:02.779Z,99363.41
2022-12-15T13:40:56.774Z,99359.06
2022-12-15T13:43:26.466Z,99359.94
2022-12-15T13:46:00.659Z,99361.69
2022-12-15T13:48:32.618Z,99366.06
2022-12-15T13:51:21.728Z,99366.06
2022-12-15T13:53:56.529Z,99360.00
2022-12-15T13:56:51.929Z,99359.97
2022-12-15T13:59:44.831Z,99353.91
2022-12-15T14:02:33.055Z,99352.19
2022-12-15T14:05:12.374Z,99340.91
2022-12-15T14:07:40.993Z,99343.47
2022-12-15T14:10:18.380Z,99341.75
2022-12-15T14:12:46.677Z,99346.97
2022-12-15T14:15:18.238Z,99349.59
2022-12-15T14:17:52.952Z,99352.22
2022-12-15T14:20:23.237Z,99349.63
2022-12-15T14:22:52.296Z,99352.25
2022-12-15T14:25:31.309Z,99343.56
2022-12-15T14:27:57.887Z,99347.03
2022-12-15T14:30:33.557Z,99343.59
2022-12-15T14:33:18.560Z,99340.09
2022-12-15T14:35:51.771Z,99336.63
2022-12-15T14:38:24.012Z,99337.50
2022-12-15T14:40:54.638Z,99332.28
2022-12-15T14:43:41.406Z,99334.91
2022-12-15T14:46:16.978Z,99327.94
2022-12-15T14:48:51.176Z,99326.22
2022-12-15T14:51:18.715Z,99327.97
2022-12-15T14:53:49.823Z,99332.31
2022-12-15T14:56:24.177Z,99329.72
2022-12-15T14:59:05.796Z,99334.94
2022-12-15T15:01:57.940Z,99328.84
2022-12-15T15:04:31.161Z,99332.31
2022-12-15T15:07:01.383Z,99337.56
2022-12-15T15:09:31.995Z,99328.00
2022-12-15T15:12:09.699Z,99327.09
2022-12-15T15:14:54.758Z,99321.03
2022-12-15T15:17:37.864Z,99317.53
2022-12-15T15:20:38.726Z,99317.56
2022-12-15T15:23:08.667Z,99317.53
2022-12-15T15:25:41.129Z,99319.31
2022-12-15T15:28:14.979Z,99318.41
2022-12-15T15:30:51.805Z,99317.50
2022-12-15T15:33:25.396Z,99321.00
2022-12-15T15:35:55.623Z,99311.44
2022-12-15T15:38:54.495Z,99321.84
2022-12-15T15:41:32.386Z,99322.69
2022-12-15T15:44:01.544Z,99319.22
2022-12-15T15:46:31.293Z,99322.66
2022-12-15T15:49:00.724Z,99331.31
2022-12-15T15:51:28.614Z,99325.22
2022-12-15T15:53:59.839Z,99333.03
2022-12-15T15:56:28.563Z,99329.53
2022-12-15T15:58:55.122Z,99333.00
2022-12-15T16:01:22.030Z,99333.88
2022-12-15T16:03:50.087Z,99329.53
2022-12-15T16:06:19.453Z,99336.44
2022-12-15T16:08:49.921Z,99332.97
2022-12-15T16:11:16.775Z,99335.56
2022-12-15T16:13:45.027Z,99339.88
2022-12-15T16:16:24.308Z,99339.88
2022-12-15T16:18:51.510Z,99339.84
2022-12-15T16:21:19.816Z,99346.78
2022-12-15T16:23:48.966Z,99345.00
2022-12-15T16:26:21.130Z,99350.19
2022-12-15T16:28:48.460Z,99351.91
2022-12-15T16:31:24.531Z,99354.50
2022-12-15T16:33:51.833Z,99358.81
2022-12-15T16:36:18.457Z,99365.78
2022-12-15T16:38:45.599Z,99368.34
2022-12-15T16:41:16.817Z,99364.00
2022-12-15T16:43:48.124Z,99361.34
2022-12-15T16:46:15.775Z,99363.97
2022-12-15T16:48:43.605Z,99369.16
2022-12-15T16:51:37.441Z,99371.78
2022-12-15T16:54:05.241Z,99376.94
2022-12-15T16:56:32.308Z,99376.00
2022-12-15T16:59:30.960Z,99381.19
2022-12-15T17:01:46.549Z,99381.16
2022-12-15T17:04:14.284Z,99379.38
2022-12-15T17:06:40.904Z,99382.84
2022-12-15T17:09:09.102Z,99384.56
2022-12-15T17:11:35.812Z,99385.41
2022-12-15T17:14:03.225Z,99385.38
2022-12-15T17:16:29.914Z,99397.50
2022-12-15T17:18:56.914Z,99392.28
2022-12-15T17:21:33.897Z,99400.91
2022-12-15T17:24:06.329Z,99400.00
2022-12-15T17:26:36.226Z,99399.13
2022-12-15T17:29:18.429Z,99397.34
2022-12-15T17:31:45.083Z,99402.53
2022-12-15T17:34:33.494Z,99398.16
2022-12-15T17:37:06.791Z,99405.91
2022-12-15T17:39:35.084Z,99410.22
2022-12-15T17:42:03.086Z,99412.75
2022-12-15T17:44:35.731Z,99410.16
2022-12-15T17:47:05.942Z,99413.59
2022-12-15T17:49:36.059Z,99403.16
2022-12-15T17:52:22.007Z,99408.34
2022-12-15T17:54:48.912Z,99416.13
2022-12-15T17:57:15.824Z,99420.44
2022-12-15T17:59:42.837Z,99423.00
2022-12-15T18:02:14.210Z,99431.63
2022-12-15T18:04:42.360Z,99433.31
2022-12-15T18:07:16.651Z,99439.34
2022-12-15T18:09:43.245Z,99454.03
2022-12-15T18:12:19.849Z,99463.56
2022-12-15T18:14:46.799Z,99465.25
2022-12-15T18:17:14.509Z,99462.63
2022-12-15T18:19:41.122Z,99462.59
2022-12-15T18:22:15.437Z,99458.22
2022-12-15T18:24:42.167Z,99464.28
2022-12-15T18:27:28.220Z,99457.31
2022-12-15T18:29:56.346Z,99456.41
2022-12-15T18:32:26.149Z,99458.16
2022-12-15T18:34:53.798Z,99458.97
2022-12-15T18:37:23.505Z,99456.34
2022-12-15T18:39:50.860Z,99461.50
2022-12-15T18:42:20.423Z,99457.19
2022-12-15T18:44:49.543Z,99454.56
2022-12-15T18:47:21.985Z,99462.34
2022-12-15T18:49:48.989Z,99464.06
2022-12-15T18:52:27.587Z,99459.69
2022-12-15T18:54:55.380Z,99456.16
2022-12-15T18:57:41.058Z,99442.28
2022-12-15T19:00:19.065Z,99437.94
2022-12-15T19:02:46.585Z,99428.47
2022-12-15T19:05:28.647Z,99424.97
2022-12-15T19:08:11.120Z,99424.97
2022-12-15T19:10:42.639Z,99429.28
2022-12-15T19:13:14.474Z,99427.53
2022-12-15T19:15:41.575Z,99428.44
2022-12-15T19:18:32.575Z,99426.66
2022-12-15T19:21:18.345Z,99427.53
2022-12-15T19:23:45.621Z,99436.22
2022-12-15T19:26:12.462Z,99431.84
2022-12-15T19:28:39.620Z,99425.78
2022-12-15T19:31:07.998Z,99423.13
2022-12-15T19:33:35.599Z,99420.56
2022-12-15T19:36:02.903Z,99430.09
2022-12-15T19:38:32.713Z,99435.22
2022-12-15T19:41:00.182Z,99435.19
2022-12-15T19:43:27.649Z,99431.72
2022-12-15T19:45:54.361Z,99424.72
2022-12-15T19:48:23.620Z,99424.69
2022-12-15T19:50:51.885Z,99433.38
2022-12-15T19:53:26.354Z,99429.00
2022-12-15T19:55:55.202Z,99428.13
2022-12-15T19:58:31.261Z,99429.88
2022-12-15T20:01:02.563Z,99429.00
2022-12-15T20:03:31.324Z,99436.78
2022-12-15T20:05:59.753Z,99440.25
2022-12-15T20:08:33.009Z,99435.91
2022-12-15T20:11:00.083Z,99423.72
2022-12-15T20:13:26.916Z,99433.22
2022-12-15T20:15:54.507Z,99433.22
2022-12-15T20:18:21.905Z,99425.41
2022-12-15T20:20:49.511Z,99431.50
2022-12-15T20:23:26.592Z,99434.91
2022-12-15T20:25:54.240Z,99427.16
2022-12-15T20:28:30.521Z,99422.81
2022-12-15T20:30:58.115Z,99417.63
2022-12-15T20:33:25.454Z,99421.09
2022-12-15T20:35:52.389Z,99428.88
2022-12-15T20:38:39.779Z,99421.94
2022-12-15T20:41:07.366Z,99419.31
2022-12-15T20:43:35.893Z,99421.94
2022-12-15T20:46:12.311Z,99418.50
2022-12-15T20:48:39.648Z,99421.00
2022-12-15T20:51:09.855Z,99424.47
2022-12-15T20:53:38.342Z,99434.84
2022-12-15T20:56:06.083Z,99431.34
2022-12-15T20:58:43.413Z,99434.81
2022-12-15T21:01:22.545Z,99436.53
2022-12-15T21:03:52.075Z,99429.63
2022-12-15T21:06:19.547Z,99421.75
2022-12-15T21:08:47.066Z,99425.19
2022-12-15T21:11:22.451Z,99427.78
2022-12-15T21:13:50.188Z,99427.81
2022-12-15T21:16:21.576Z,99422.63
2022-12-15T21:21:39.713Z,99416.50
2022-12-15T21:24:24.730Z,99424.28
2022-12-15T21:26:51.976Z,99420.91
2022-12-15T21:29:22.715Z,99420.03
